Søk
Bilder fra klubbens virksomhet
Tooltip
Soloflygninger
Tooltip
Espen Wiik har fløyet solo
Tooltip
Rashad Habib har fløyet solo
Tooltip
David Froholt har fløyet solo
Tooltip
Leif Olsen er pilot
  • Tilfeldig bilde
     
    Opplastet 21-02-2010
    Opplastet 12-05-2008
    Opplastet 12-05-2008
     
  • Siste bilde
     
    Opplastet 27-07-2018
    Opplastet 05-06-2018
    Opplastet 31-10-2017
     
«StartForrige1234NesteSiste»
Side 1 av 4
 
 
METAR
2018/12/10 14:20 ENCN 101420Z 32013KT CAVOK 07/M03 Q1006
TAF
2018/12/10 12:37 TAF ENCN 101100Z 1012/1021 31012KT CAVOK TEMPO 1012/1021 33015G28KT
LN-KFK
Operativ VFR-natt
VFR dag
08:11 - 16:29
Brannvakt
Inaktiv
Banner
Banner
Banner
Banner
Banner